Time;durP1;ratioP1;P1;durP2;ratioP2;P2;SDS_P1;SDS_P2;PMS_P1;PMS_P2;Temp;Humidity;BMP_temperature;BMP_pressure;BME280_temperature;BME280_humidity;BME280_pressure;Samples;Min_cycle;Max_cycle;Signal;HPM_P1;HPM_P2
2023/03/30 00:02:21;;;;;;;12.48;6.90;;;6.60;94.80;;;;;;5053085;28;20363;-67
2023/03/30 00:04:48;;;;;;;13.10;6.75;;;6.60;95.20;;;;;;5052953;28;20028;-67
2023/03/30 00:07:14;;;;;;;10.07;7.10;;;6.60;95.40;;;;;;5053583;28;20075;-69
2023/03/30 00:09:42;;;;;;;11.55;6.88;;;6.60;95.40;;;;;;5052637;28;20064;-69
2023/03/30 00:12:12;;;;;;;10.05;6.97;;;6.60;95.40;;;;;;5051598;28;20070;-67
2023/03/30 00:14:41;;;;;;;13.93;7.32;;;6.60;95.70;;;;;;5052846;28;20533;-67
2023/03/30 00:17:07;;;;;;;12.18;7.00;;;6.60;95.80;;;;;;5053126;28;20043;-68
2023/03/30 00:19:36;;;;;;;12.07;7.70;;;6.60;96.50;;;;;;5053456;28;20488;-68
2023/03/30 00:22:04;;;;;;;11.32;6.82;;;6.60;97.00;;;;;;5052646;28;20093;-67
2023/03/30 00:24:30;;;;;;;11.00;7.28;;;6.50;97.30;;;;;;5052381;28;20535;-68
2023/03/30 00:26:56;;;;;;;11.32;7.15;;;6.50;97.30;;;;;;5052637;28;20135;-68
2023/03/30 00:29:21;;;;;;;10.50;7.25;;;6.50;97.40;;;;;;5052743;28;20075;-68
2023/03/30 00:31:47;;;;;;;10.15;7.00;;;6.50;97.50;;;;;;5052552;28;20032;-68
2023/03/30 00:34:13;;;;;;;12.95;7.28;;;6.50;97.80;;;;;;5053101;28;20461;-68
2023/03/30 00:36:38;;;;;;;11.35;7.75;;;6.50;98.20;;;;;;5052779;28;20116;-68
2023/03/30 00:39:07;;;;;;;12.80;7.20;;;6.50;98.30;;;;;;5052717;28;20420;-68
2023/03/30 00:41:35;;;;;;;12.40;7.45;;;6.50;98.60;;;;;;5052789;28;20048;-67
2023/03/30 00:44:05;;;;;;;13.07;7.07;;;6.50;98.80;;;;;;5052240;28;20049;-67
2023/03/30 00:46:31;;;;;;;11.90;7.75;;;6.50;98.80;;;;;;5052787;28;20381;-67
2023/03/30 00:49:02;;;;;;;12.70;7.60;;;6.50;99.10;;;;;;5051155;28;20075;-68
2023/03/30 00:51:29;;;;;;;10.07;7.40;;;6.50;99.30;;;;;;5052268;28;20025;-67
2023/03/30 00:54:01;;;;;;;11.00;7.22;;;6.50;99.50;;;;;;5052358;28;20162;-68
2023/03/30 00:56:30;;;;;;;13.95;6.68;;;6.50;99.70;;;;;;5052579;28;20029;-67
2023/03/30 00:58:56;;;;;;;13.75;7.47;;;6.50;99.80;;;;;;5051786;28;20389;-67
2023/03/30 01:01:27;;;;;;;13.00;7.88;;;6.40;99.80;;;;;;5052262;28;20032;-67
2023/03/30 01:03:54;;;;;;;;;;;6.40;99.70;;;;;;5050988;28;20111;-68
2023/03/30 01:06:23;;;;;;;13.10;7.00;;;6.40;99.50;;;;;;5052559;28;19905;-68
2023/03/30 01:08:50;;;;;;;13.77;7.40;;;6.40;99.50;;;;;;5051754;28;20458;-68
2023/03/30 01:11:15;;;;;;;12.68;6.95;;;6.40;99.40;;;;;;5050939;28;20561;-67
2023/03/30 01:13:45;;;;;;;11.52;7.30;;;6.40;99.70;;;;;;5052493;28;20132;-67
2023/03/30 01:16:19;;;;;;;12.07;7.18;;;6.40;99.90;;;;;;5051661;28;20032;-67
2023/03/30 01:19:20;;;;;;;10.57;7.50;;;6.40;99.90;;;;;;5052161;28;20039;-72
2023/03/30 01:21:57;;;;;;;11.30;7.32;;;6.40;99.90;;;;;;5035390;28;20442;-72
2023/03/30 01:25:02;;;;;;;10.32;7.53;;;6.40;99.90;;;;;;5052353;28;20029;-67
2023/03/30 01:27:51;;;;;;;14.82;8.63;;;6.40;99.90;;;;;;5052341;28;20436;-68
2023/03/30 01:30:29;;;;;;;14.23;8.40;;;6.40;99.90;;;;;;5052401;28;20142;-68
2023/03/30 01:33:14;;;;;;;12.20;9.18;;;6.40;99.90;;;;;;5051708;28;20553;-68
2023/03/30 01:35:42;;;;;;;11.68;9.10;;;6.40;99.90;;;;;;5051899;28;20489;-68
2023/03/30 01:38:26;;;;;;;16.60;10.02;;;6.50;99.90;;;;;;5050074;28;20388;-67
2023/03/30 01:41:12;;;;;;;12.40;9.73;;;6.50;99.90;;;;;;5031691;28;20068;-68
2023/03/30 01:44:11;;;;;;;13.82;9.23;;;6.50;99.90;;;;;;5031744;28;20486;-67
2023/03/30 01:46:44;;;;;;;11.70;8.18;;;6.50;99.90;;;;;;5029238;28;20120;-68
2023/03/30 01:49:18;;;;;;;12.27;7.68;;;6.50;99.90;;;;;;5031819;28;20466;-69
2023/03/30 01:51:58;;;;;;;10.00;7.10;;;6.50;99.90;;;;;;5032346;28;20478;-68
2023/03/30 01:54:31;;;;;;;10.70;7.65;;;6.50;99.90;;;;;;5032286;28;20037;-68
2023/03/30 01:57:13;;;;;;;10.68;7.22;;;6.50;99.90;;;;;;5031471;28;20025;-68
2023/03/30 02:00:10;;;;;;;11.20;7.45;;;6.50;99.90;;;;;;5032235;28;20121;-67
2023/03/30 02:02:37;;;;;;;8.48;6.40;;;6.50;99.90;;;;;;5034730;28;20029;-67
2023/03/30 02:05:06;;;;;;;10.38;7.60;;;6.50;99.90;;;;;;5034187;28;20029;-67
2023/03/30 02:07:33;;;;;;;10.25;7.03;;;6.60;99.90;;;;;;5035846;28;20025;-67
2023/03/30 02:10:05;;;;;;;13.43;7.65;;;6.60;99.90;;;;;;5035060;28;20029;-67
2023/03/30 02:12:32;;;;;;;13.10;7.22;;;6.60;99.90;;;;;;5036329;28;20025;-67
2023/03/30 02:15:03;;;;;;;9.43;7.03;;;6.60;99.90;;;;;;5037129;28;20060;-67
2023/03/30 02:17:30;;;;;;;13.55;7.93;;;6.50;99.90;;;;;;5035348;28;20040;-67
2023/03/30 02:19:57;;;;;;;12.10;7.60;;;6.60;99.90;;;;;;5038433;28;20379;-67
2023/03/30 02:22:25;;;;;;;11.52;7.28;;;6.60;99.90;;;;;;5054991;28;20021;-67
2023/03/30 02:24:53;;;;;;;9.98;7.15;;;6.60;99.90;;;;;;5054687;28;20412;-68
2023/03/30 02:27:21;;;;;;;10.80;7.18;;;6.60;99.90;;;;;;5054867;28;20374;-67
2023/03/30 02:29:46;;;;;;;10.13;7.40;;;6.60;99.90;;;;;;5054973;28;20503;-70
2023/03/30 02:32:27;;;;;;;11.52;7.57;;;6.60;99.90;;;;;;5054928;28;20100;-67
2023/03/30 02:35:17;;;;;;;12.40;7.72;;;6.70;99.90;;;;;;5054801;28;20075;-66
2023/03/30 02:37:49;;;;;;;11.48;7.57;;;6.70;99.90;;;;;;5055221;28;20040;-68
2023/03/30 02:40:40;;;;;;;9.23;7.43;;;6.70;99.90;;;;;;5054786;28;20032;-68
2023/03/30 02:43:28;;;;;;;10.88;7.70;;;6.70;99.90;;;;;;5053973;28;20041;-68
2023/03/30 02:46:06;;;;;;;11.88;8.10;;;6.70;99.90;;;;;;5054583;28;20161;-68
2023/03/30 02:49:03;;;;;;;12.32;7.90;;;6.70;99.90;;;;;;5055057;28;20481;-68
2023/03/30 02:51:40;;;;;;;13.45;8.45;;;6.70;99.90;;;;;;5054990;28;20025;-68
2023/03/30 02:54:32;;;;;;;16.60;9.05;;;6.70;99.90;;;;;;5054357;28;20033;-68
2023/03/30 02:57:10;;;;;;;13.90;8.13;;;6.70;99.90;;;;;;5038081;28;20512;-67
2023/03/30 03:00:00;;;;;;;11.07;7.85;;;6.70;99.90;;;;;;5054799;28;20036;-67
2023/03/30 03:02:39;;;;;;;12.77;8.35;;;6.70;99.90;;;;;;5054648;28;20094;-67
2023/03/30 03:05:08;;;;;;;13.80;8.77;;;6.70;99.90;;;;;;5054333;28;20029;-68
2023/03/30 03:07:34;;;;;;;10.88;8.13;;;6.70;99.90;;;;;;5054729;28;20036;-68
2023/03/30 03:10:00;;;;;;;11.07;8.60;;;6.70;99.90;;;;;;5054121;28;20025;-68
2023/03/30 03:12:27;;;;;;;15.68;8.88;;;6.70;99.90;;;;;;5054629;28;20032;-68
2023/03/30 03:14:53;;;;;;;13.40;9.38;;;6.70;99.90;;;;;;5053642;28;20365;-68
2023/03/30 03:17:21;;;;;;;14.45;8.85;;;6.70;99.90;;;;;;5054657;28;20029;-68
2023/03/30 03:19:47;;;;;;;13.02;8.43;;;6.70;99.90;;;;;;5053989;28;20025;-67
2023/03/30 03:22:13;;;;;;;14.82;8.88;;;6.70;99.90;;;;;;5052593;28;20032;-68
2023/03/30 03:24:39;;;;;;;14.45;8.90;;;6.60;99.90;;;;;;5054192;28;20028;-68
2023/03/30 03:27:06;;;;;;;12.27;8.35;;;6.60;99.90;;;;;;5053809;28;20025;-68
2023/03/30 03:29:31;;;;;;;11.20;7.95;;;6.60;99.90;;;;;;5054014;28;20025;-68
2023/03/30 03:31:58;;;;;;;16.45;8.00;;;6.60;99.90;;;;;;5053721;28;20036;-68
2023/03/30 03:34:30;;;;;;;13.48;7.85;;;6.60;99.90;;;;;;5053667;28;20482;-68
2023/03/30 03:36:58;;;;;;;10.30;7.95;;;6.50;99.90;;;;;;5053675;28;20041;-68
2023/03/30 03:39:24;;;;;;;14.00;7.65;;;6.50;99.90;;;;;;5054003;28;20031;-68
2023/03/30 03:41:50;;;;;;;11.70;7.75;;;6.50;99.90;;;;;;5053941;28;20104;-68
2023/03/30 03:44:16;;;;;;;14.27;8.27;;;6.40;99.90;;;;;;5053338;28;20063;-67
2023/03/30 03:46:41;;;;;;;12.63;7.88;;;6.40;99.90;;;;;;5053900;28;20079;-68
2023/03/30 03:49:07;;;;;;;14.48;7.15;;;6.40;99.90;;;;;;5052727;28;20025;-68
2023/03/30 03:51:33;;;;;;;11.73;7.40;;;6.40;99.90;;;;;;5053435;28;20078;-68
2023/03/30 03:53:59;;;;;;;11.90;7.55;;;6.30;99.90;;;;;;5052836;28;20112;-66
2023/03/30 03:56:25;;;;;;;11.40;7.25;;;6.30;99.90;;;;;;5053109;28;20136;-68
2023/03/30 03:58:52;;;;;;;11.13;6.88;;;6.30;99.90;;;;;;5053407;28;20028;-68
2023/03/30 04:01:18;;;;;;;10.18;6.93;;;6.30;99.90;;;;;;5052732;28;20021;-68
2023/03/30 04:03:43;;;;;;;12.30;7.25;;;6.20;99.90;;;;;;5053143;28;20165;-68
2023/03/30 04:06:09;;;;;;;12.68;7.40;;;6.20;99.90;;;;;;5052965;28;20406;-68
2023/03/30 04:08:35;;;;;;;10.63;7.40;;;6.20;99.90;;;;;;5053543;28;20450;-68
2023/03/30 04:11:10;;;;;;;11.00;7.45;;;6.10;99.90;;;;;;5052849;28;20374;-68
2023/03/30 04:13:37;;;;;;;13.85;8.88;;;6.00;99.90;;;;;;5053272;28;20025;-67
2023/03/30 04:16:03;;;;;;;10.98;7.03;;;6.00;99.90;;;;;;5051526;28;20473;-68
2023/03/30 04:18:32;;;;;;;12.95;7.80;;;6.00;99.90;;;;;;5053147;28;20029;-68
2023/03/30 04:21:03;;;;;;;12.80;7.55;;;6.00;99.90;;;;;;5052623;28;20021;-73
2023/03/30 04:23:35;;;;;;;10.32;7.35;;;5.90;99.90;;;;;;5052663;28;20032;-67
2023/03/30 04:26:03;;;;;;;10.88;6.72;;;5.90;99.90;;;;;;5051672;28;20466;-68
2023/03/30 04:28:31;;;;;;;13.32;6.82;;;5.90;99.90;;;;;;5052959;28;20127;-68
2023/03/30 04:31:02;;;;;;;10.35;6.60;;;5.90;99.90;;;;;;5052830;28;20055;-72
2023/03/30 04:33:28;;;;;;;12.38;7.85;;;5.90;99.90;;;;;;5053252;28;20021;-67
2023/03/30 04:35:54;;;;;;;11.68;6.90;;;5.90;99.90;;;;;;5052959;28;20107;-68
2023/03/30 04:38:23;;;;;;;11.93;7.07;;;5.90;99.90;;;;;;5052279;28;20032;-67
2023/03/30 04:40:49;;;;;;;10.85;7.30;;;5.90;99.90;;;;;;5052956;28;20412;-68
2023/03/30 04:43:18;;;;;;;15.15;7.13;;;6.00;99.90;;;;;;5052330;28;20084;-67
2023/03/30 04:45:55;;;;;;;13.05;6.85;;;6.00;99.90;;;;;;5052716;28;20512;-68
2023/03/30 04:48:22;;;;;;;13.52;6.63;;;6.00;99.90;;;;;;5052224;28;20482;-68
2023/03/30 04:50:49;;;;;;;11.30;6.70;;;6.00;99.90;;;;;;5051454;28;20082;-66
2023/03/30 04:53:16;;;;;;;11.65;7.60;;;6.00;99.90;;;;;;5051071;28;20428;-67
2023/03/30 04:55:46;;;;;;;11.32;6.82;;;6.10;99.90;;;;;;5052527;28;20029;-68
2023/03/30 04:58:13;;;;;;;13.38;7.05;;;6.10;99.90;;;;;;5050857;28;20065;-68
2023/03/30 05:00:39;;;;;;;14.85;7.53;;;6.10;99.90;;;;;;5052394;28;20040;-68
2023/03/30 05:03:05;;;;;;;13.07;7.60;;;6.10;99.90;;;;;;5052127;28;20017;-68
2023/03/30 05:05:31;;;;;;;12.35;7.28;;;6.10;99.90;;;;;;5052404;28;20036;-68
2023/03/30 05:07:57;;;;;;;13.57;6.78;;;6.10;99.90;;;;;;5052175;28;20032;-68
2023/03/30 05:10:23;;;;;;;11.00;7.38;;;6.10;99.90;;;;;;5051616;28;20025;-68
2023/03/30 05:12:49;;;;;;;12.15;7.85;;;6.20;99.90;;;;;;5052560;28;20028;-68
2023/03/30 05:15:15;;;;;;;19.48;8.15;;;6.20;99.90;;;;;;5052426;28;20041;-67
2023/03/30 05:17:41;;;;;;;15.77;7.57;;;6.20;99.90;;;;;;5052265;28;20025;-69
2023/03/30 05:20:08;;;;;;;10.18;7.28;;;6.20;99.90;;;;;;5051655;28;20036;-67
2023/03/30 05:22:34;;;;;;;11.02;7.30;;;6.20;99.90;;;;;;5052289;28;20025;-67
2023/03/30 05:25:00;;;;;;;13.65;7.47;;;6.20;99.90;;;;;;5052055;28;20482;-67
2023/03/30 05:27:26;;;;;;;12.82;7.50;;;6.20;99.90;;;;;;5052071;28;20358;-67
2023/03/30 05:29:52;;;;;;;11.65;7.25;;;6.10;99.90;;;;;;5052240;28;20086;-68
2023/03/30 05:32:17;;;;;;;12.15;7.55;;;6.20;99.90;;;;;;5051585;28;20060;-68
2023/03/30 05:34:43;;;;;;;10.93;6.93;;;6.20;99.90;;;;;;5052225;28;20101;-68
2023/03/30 05:37:09;;;;;;;9.18;7.50;;;6.20;99.90;;;;;;5053741;28;20037;-68
2023/03/30 05:39:35;;;;;;;10.45;7.20;;;6.10;99.90;;;;;;5056307;28;20028;-68
2023/03/30 05:42:02;;;;;;;11.80;7.72;;;6.10;99.90;;;;;;5056149;28;20025;-67
2023/03/30 05:44:28;;;;;;;10.98;7.20;;;6.20;99.90;;;;;;5056178;28;20381;-67
2023/03/30 05:46:54;;;;;;;10.20;7.40;;;6.20;99.90;;;;;;5055711;28;20025;-66
2023/03/30 05:49:19;;;;;;;13.32;8.23;;;6.20;99.90;;;;;;5055245;28;20025;-68
2023/03/30 05:51:45;;;;;;;13.25;7.85;;;6.20;99.90;;;;;;5055796;28;20100;-67
2023/03/30 05:54:12;;;;;;;11.55;7.43;;;6.20;99.90;;;;;;5055273;28;20029;-67
2023/03/30 05:56:38;;;;;;;12.98;7.93;;;6.30;99.90;;;;;;5055695;28;20028;-68
2023/03/30 05:59:04;;;;;;;11.38;7.38;;;6.30;99.90;;;;;;5055463;28;20029;-72
2023/03/30 06:01:30;;;;;;;12.57;7.35;;;6.40;99.90;;;;;;5055196;28;20021;-68
2023/03/30 06:03:56;;;;;;;10.10;6.78;;;6.40;99.40;;;;;;5055592;28;20434;-68
2023/03/30 06:06:22;;;;;;;11.88;7.47;;;6.50;99.50;;;;;;5055134;28;20028;-68
2023/03/30 06:08:48;;;;;;;9.18;7.05;;;6.60;99.60;;;;;;5054594;28;20040;-68
2023/03/30 06:11:14;;;;;;;11.68;7.22;;;6.70;99.60;;;;;;5055075;28;20374;-67
2023/03/30 06:13:40;;;;;;;10.40;7.07;;;6.70;99.30;;;;;;5055399;28;20381;-68
2023/03/30 06:16:06;;;;;;;10.52;7.20;;;6.80;99.20;;;;;;5054404;28;20115;-68
2023/03/30 06:18:32;;;;;;;12.98;7.80;;;6.70;98.60;;;;;;5054482;28;20472;-67
2023/03/30 06:21:01;;;;;;;11.65;7.22;;;6.70;98.80;;;;;;5055428;28;20051;-67
2023/03/30 06:23:27;;;;;;;12.05;7.10;;;6.70;98.70;;;;;;5056316;28;20025;-68
2023/03/30 06:25:54;;;;;;;13.07;8.10;;;6.80;98.90;;;;;;5058524;28;20033;-67
2023/03/30 06:28:21;;;;;;;9.48;7.50;;;6.80;99.00;;;;;;5058433;28;20040;-68
2023/03/30 06:30:48;;;;;;;14.43;8.32;;;6.90;99.50;;;;;;5057026;28;20025;-67
2023/03/30 06:33:17;;;;;;;16.35;8.38;;;7.00;99.50;;;;;;5055460;28;20350;-68
2023/03/30 06:35:45;;;;;;;11.80;7.55;;;7.10;99.70;;;;;;5054865;28;20381;-67
2023/03/30 06:38:12;;;;;;;11.60;6.93;;;7.10;99.80;;;;;;5054544;28;20048;-67
2023/03/30 06:40:37;;;;;;;12.82;7.40;;;7.20;99.70;;;;;;5055057;28;20021;-67
2023/03/30 06:43:03;;;;;;;10.15;7.00;;;7.20;99.70;;;;;;5054808;28;20029;-67
2023/03/30 06:45:29;;;;;;;13.10;6.80;;;7.20;99.60;;;;;;5054617;28;20043;-67
2023/03/30 06:47:55;;;;;;;13.45;7.75;;;7.30;99.60;;;;;;5053862;28;20021;-67
2023/03/30 06:50:22;;;;;;;13.00;7.63;;;7.30;99.80;;;;;;5054395;28;20111;-67
2023/03/30 06:52:47;;;;;;;11.32;6.78;;;7.30;99.90;;;;;;5054811;28;20033;-67
2023/03/30 06:55:13;;;;;;;14.13;7.32;;;7.40;99.50;;;;;;5054242;28;20033;-67
2023/03/30 06:57:39;;;;;;;13.02;7.35;;;7.40;99.20;;;;;;5053272;28;20072;-67
2023/03/30 07:00:12;;;;;;;10.00;7.20;;;7.40;98.50;;;;;;5054488;28;20493;-67
2023/03/30 07:02:38;;;;;;;9.75;6.25;;;7.40;98.20;;;;;;5054466;28;20021;-69
2023/03/30 07:05:06;;;;;;;10.77;7.00;;;7.40;97.60;;;;;;5054325;28;20480;-68
2023/03/30 07:07:32;;;;;;;11.18;6.97;;;7.50;97.70;;;;;;5054038;28;20079;-67
2023/03/30 07:09:58;;;;;;;12.82;6.68;;;7.50;97.90;;;;;;5054553;28;20089;-67
2023/03/30 07:12:24;;;;;;;9.00;5.93;;;7.60;98.00;;;;;;5054020;28;20457;-67
2023/03/30 07:14:49;;;;;;;9.40;6.43;;;7.60;97.40;;;;;;5054451;28;20040;-66
2023/03/30 07:17:15;;;;;;;10.68;6.25;;;7.70;97.00;;;;;;5053913;28;20450;-67
2023/03/30 07:19:41;;;;;;;9.90;6.35;;;7.90;97.20;;;;;;5053266;28;20029;-67
2023/03/30 07:22:08;;;;;;;8.23;5.88;;;8.10;96.50;;;;;;5054274;28;20435;-67
2023/03/30 07:24:34;;;;;;;7.30;5.88;;;8.20;96.10;;;;;;5053545;28;20461;-67
2023/03/30 07:27:00;;;;;;;8.65;6.03;;;8.50;96.00;;;;;;5054293;28;20033;-67
2023/03/30 07:29:27;;;;;;;9.45;5.57;;;8.50;94.90;;;;;;5053757;28;20032;-67
2023/03/30 07:31:55;;;;;;;10.63;5.97;;;8.40;94.90;;;;;;5054188;28;20032;-67
2023/03/30 07:34:21;;;;;;;10.20;6.45;;;8.40;94.90;;;;;;5053612;28;20024;-67
2023/03/30 07:36:47;;;;;;;10.70;6.68;;;8.40;95.40;;;;;;5052575;28;20378;-67
2023/03/30 07:39:13;;;;;;;9.13;6.10;;;8.40;95.70;;;;;;5053600;28;20134;-68
2023/03/30 07:41:39;;;;;;;10.32;6.60;;;8.40;95.80;;;;;;5052673;28;20036;-67
2023/03/30 07:44:05;;;;;;;9.90;6.45;;;8.40;95.80;;;;;;5052497;28;20049;-67
2023/03/30 07:46:30;;;;;;;8.55;5.97;;;8.40;95.70;;;;;;5053084;28;20035;-67
2023/03/30 07:48:56;;;;;;;9.68;6.68;;;8.60;95.80;;;;;;5053809;28;20454;-68
2023/03/30 07:51:23;;;;;;;12.52;6.80;;;8.90;95.40;;;;;;5051241;28;20079;-66
2023/03/30 07:53:48;;;;;;;10.07;6.28;;;9.20;95.10;;;;;;5053757;28;20061;-67
2023/03/30 07:56:14;;;;;;;9.50;6.28;;;9.20;93.30;;;;;;5053171;28;20065;-68
2023/03/30 07:58:40;;;;;;;13.20;6.72;;;9.30;92.90;;;;;;5053498;28;20052;-66
2023/03/30 08:01:07;;;;;;;10.73;6.90;;;9.30;92.50;;;;;;5053650;28;20454;-67
2023/03/30 08:03:32;;;;;;;10.20;7.10;;;9.50;92.20;;;;;;5053080;28;20275;-67
2023/03/30 08:06:03;;;;;;;8.85;6.47;;;9.60;91.90;;;;;;5053160;28;20463;-68
2023/03/30 08:08:29;;;;;;;8.43;6.43;;;9.90;91.90;;;;;;5051719;28;20029;-69
2023/03/30 08:10:55;;;;;;;10.27;6.25;;;10.90;91.70;;;;;;5053243;28;20036;-66
2023/03/30 08:13:21;;;;;;;8.10;5.65;;;11.40;86.30;;;;;;5052850;28;20044;-67
2023/03/30 08:15:47;;;;;;;10.95;6.45;;;11.60;85.20;;;;;;5053212;28;20139;-67
2023/03/30 08:18:13;;;;;;;11.10;5.97;;;12.80;82.50;;;;;;5053214;28;20381;-67
2023/03/30 08:20:41;;;;;;;9.10;5.80;;;13.20;77.60;;;;;;5053312;28;20033;-67
2023/03/30 08:23:10;;;;;;;13.57;5.72;;;13.60;76.30;;;;;;5052429;28;20025;-67
2023/03/30 08:25:36;;;;;;;10.60;5.45;;;14.50;73.10;;;;;;5052386;28;20068;-66
2023/03/30 08:28:03;;;;;;;10.40;5.60;;;15.50;68.90;;;;;;5053430;28;20052;-66
2023/03/30 08:30:28;;;;;;;11.55;5.40;;;15.10;65.30;;;;;;5052564;28;20095;-67
2023/03/30 08:32:54;;;;;;;11.35;5.93;;;14.60;66.20;;;;;;5052639;28;20025;-67
2023/03/30 08:35:20;;;;;;;9.70;5.88;;;14.10;66.50;;;;;;5052702;28;20500;-68
2023/03/30 08:37:46;;;;;;;9.10;5.50;;;13.60;68.20;;;;;;5052753;28;20025;-67
2023/03/30 08:40:14;;;;;;;10.23;5.65;;;13.30;69.50;;;;;;5052925;28;20379;-66
2023/03/30 08:42:43;;;;;;;9.32;5.65;;;13.00;70.30;;;;;;5052431;28;20079;-67
2023/03/30 08:45:11;;;;;;;8.45;5.90;;;12.70;71.40;;;;;;5051264;28;20052;-67
2023/03/30 08:47:40;;;;;;;10.02;5.88;;;12.50;72.80;;;;;;5052259;28;20029;-68
2023/03/30 08:50:10;;;;;;;11.88;6.25;;;12.40;73.60;;;;;;5052680;28;20025;-67
2023/03/30 08:52:36;;;;;;;8.20;6.07;;;12.30;75.10;;;;;;5052426;28;20036;-67
2023/03/30 08:55:03;;;;;;;10.15;5.65;;;12.30;75.60;;;;;;5052502;28;20056;-67
2023/03/30 08:57:54;;;;;;;8.90;5.93;;;12.20;75.70;;;;;;5052413;28;20111;-68
2023/03/30 09:00:28;;;;;;;;;;;12.10;76.50;;;;;;5052563;28;20040;-68
2023/03/30 09:03:02;;;;;;;11.07;6.68;;;12.00;77.60;;;;;;5052568;28;20347;-68
2023/03/30 09:05:31;;;;;;;10.52;6.38;;;12.10;78.20;;;;;;5050839;28;20036;-68
2023/03/30 09:08:15;;;;;;;8.70;5.72;;;12.10;79.70;;;;;;5052266;28;20527;-67
2023/03/30 09:10:46;;;;;;;10.60;6.50;;;12.30;78.60;;;;;;5051624;28;20048;-67
2023/03/30 09:13:16;;;;;;;8.55;5.60;;;12.40;80.00;;;;;;5052168;28;20428;-66
2023/03/30 09:15:49;;;;;;;12.40;5.65;;;12.60;78.90;;;;;;5050642;28;20132;-68
2023/03/30 09:18:21;;;;;;;8.00;5.85;;;12.70;78.10;;;;;;5052555;28;20071;-67
2023/03/30 09:20:50;;;;;;;10.85;5.97;;;12.70;78.10;;;;;;5052348;28;20033;-67
2023/03/30 09:23:17;;;;;;;9.68;5.93;;;12.80;78.00;;;;;;5052602;28;20104;-67
2023/03/30 09:25:43;;;;;;;9.10;6.28;;;12.80;77.00;;;;;;5051907;28;20128;-68
2023/03/30 09:28:31;;;;;;;8.75;5.85;;;12.70;76.80;;;;;;5052288;28;20104;-68
2023/03/30 09:31:07;;;;;;;7.90;6.40;;;12.60;77.50;;;;;;5052039;28;20025;-67
2023/03/30 09:33:45;;;;;;;10.68;5.82;;;12.60;78.20;;;;;;5051660;28;20021;-68
2023/03/30 09:36:32;;;;;;;11.27;7.22;;;12.60;78.60;;;;;;5052120;28;20401;-68
2023/03/30 09:38:57;;;;;;;8.80;5.72;;;12.50;79.50;;;;;;5052058;28;20017;-67
2023/03/30 09:41:54;;;;;;;8.63;5.82;;;12.40;80.10;;;;;;5051611;28;20021;-68
2023/03/30 09:44:32;;;;;;;9.95;5.80;;;12.30;80.90;;;;;;5051453;28;20436;-68
2023/03/30 09:46:59;;;;;;;10.32;6.45;;;12.30;81.20;;;;;;5052085;28;20040;-67
2023/03/30 09:49:36;;;;;;;12.23;6.32;;;12.20;81.80;;;;;;5051463;28;20027;-67
2023/03/30 09:52:06;;;;;;;10.75;6.47;;;12.20;82.20;;;;;;5052340;28;20056;-67
2023/03/30 09:54:40;;;;;;;11.93;7.28;;;12.10;82.90;;;;;;5051600;28;20033;-67
2023/03/30 09:57:25;;;;;;;8.27;6.50;;;12.10;82.70;;;;;;5051931;28;20041;-67
2023/03/30 09:59:54;;;;;;;10.38;6.78;;;12.10;83.30;;;;;;5052140;28;20029;-67
2023/03/30 10:02:21;;;;;;;10.57;6.60;;;12.00;83.10;;;;;;5051602;28;20037;-67
2023/03/30 10:04:55;;;;;;;11.13;6.97;;;11.90;83.40;;;;;;5051916;28;20025;-68
2023/03/30 10:07:40;;;;;;;10.32;6.60;;;11.90;83.40;;;;;;5051913;28;20083;-68
2023/03/30 10:10:34;;;;;;;12.50;6.53;;;11.90;83.60;;;;;;5052140;28;20116;-68
2023/03/30 10:13:13;;;;;;;13.70;6.43;;;11.80;84.50;;;;;;5051809;28;20044;-67
2023/03/30 10:15:43;;;;;;;14.50;6.80;;;11.80;85.10;;;;;;5051527;28;20479;-67
2023/03/30 10:18:45;;;;;;;9.88;6.05;;;11.70;84.70;;;;;;5051166;28;20469;-67
2023/03/30 10:21:14;;;;;;;8.20;6.13;;;11.70;85.10;;;;;;5049152;28;20037;-67
2023/03/30 10:23:43;;;;;;;8.75;6.55;;;11.70;85.30;;;;;;5052723;28;20033;-68
2023/03/30 10:26:19;;;;;;;12.27;6.47;;;11.70;85.80;;;;;;5055407;28;20469;-68
2023/03/30 10:29:06;;;;;;;9.25;5.95;;;11.70;86.50;;;;;;5054930;28;20028;-68
2023/03/30 10:31:37;;;;;;;11.77;6.68;;;11.70;86.70;;;;;;5054867;28;20060;-68
2023/03/30 10:34:13;;;;;;;10.63;6.55;;;11.70;86.70;;;;;;5055192;28;20311;-68
2023/03/30 10:36:39;;;;;;;9.15;6.53;;;11.70;87.00;;;;;;5054519;28;20033;-67
2023/03/30 10:39:21;;;;;;;13.05;6.68;;;11.70;87.40;;;;;;5055186;28;20025;-67
2023/03/30 10:41:49;;;;;;;13.40;7.05;;;11.80;87.70;;;;;;5054410;28;20501;-66
2023/03/30 10:44:22;;;;;;;12.70;7.07;;;11.80;87.50;;;;;;5054881;28;20611;-67
2023/03/30 10:46:51;;;;;;;10.35;6.93;;;11.80;87.20;;;;;;5054621;28;20039;-66
2023/03/30 10:50:01;;;;;;;9.23;6.28;;;11.90;87.30;;;;;;5053604;28;20040;-67
2023/03/30 10:52:56;;;;;;;7.47;5.70;;;11.90;87.10;;;;;;5054386;28;20029;-71
2023/03/30 10:55:36;;;;;;;11.70;6.32;;;11.90;86.00;;;;;;5049907;28;20080;-66
2023/03/30 10:58:34;;;;;;;9.93;6.70;;;11.90;85.80;;;;;;5054867;28;20017;-67
2023/03/30 11:01:07;;;;;;;8.75;6.28;;;11.90;85.80;;;;;;5045253;28;20496;-67
2023/03/30 11:03:35;;;;;;;9.90;6.80;;;11.90;85.00;;;;;;5054207;28;20378;-67
2023/03/30 11:06:22;;;;;;;8.60;5.63;;;11.80;85.50;;;;;;5054730;28;20120;-66
2023/03/30 11:08:51;;;;;;;12.00;6.65;;;11.80;85.70;;;;;;5054059;28;20061;-67
2023/03/30 11:11:21;;;;;;;9.68;6.20;;;11.90;86.00;;;;;;5054574;28;20485;-67
2023/03/30 11:13:54;;;;;;;11.70;6.05;;;11.90;85.70;;;;;;5053801;28;20649;-66
2023/03/30 11:16:21;;;;;;;8.15;5.63;;;11.90;85.10;;;;;;5054384;28;20037;-67
2023/03/30 11:19:02;;;;;;;20.80;8.05;;;11.80;84.90;;;;;;5053874;28;20124;-68
2023/03/30 11:21:57;;;;;;;9.93;6.30;;;11.90;84.70;;;;;;5054006;28;20056;-68
2023/03/30 11:24:25;;;;;;;8.75;5.93;;;11.90;85.10;;;;;;5054480;28;20025;-67
2023/03/30 11:27:14;;;;;;;10.73;5.88;;;11.90;85.30;;;;;;5052419;28;20057;-68
2023/03/30 11:29:48;;;;;;;11.00;7.18;;;11.90;85.40;;;;;;5053810;28;20414;-67
2023/03/30 11:32:39;;;;;;;13.00;6.47;;;11.90;85.50;;;;;;5054081;28;20025;-67
2023/03/30 11:35:16;;;;;;;;;;;11.90;85.10;;;;;;5054230;28;20095;-67
2023/03/30 11:37:46;;;;;;;8.50;6.38;;;11.90;84.60;;;;;;5053503;28;19905;-67
2023/03/30 11:40:26;;;;;;;8.88;6.32;;;11.90;84.20;;;;;;5053484;28;20021;-67
2023/03/30 11:42:53;;;;;;;9.95;6.97;;;11.90;84.50;;;;;;5053446;28;20104;-67
2023/03/30 11:45:21;;;;;;;10.65;6.47;;;11.90;85.80;;;;;;5053765;28;20374;-67
2023/03/30 11:48:00;;;;;;;11.18;7.15;;;12.00;86.00;;;;;;5053494;28;20029;-67
2023/03/30 11:51:10;;;;;;;10.30;6.88;;;12.00;86.70;;;;;;5053686;28;20037;-66
2023/03/30 11:53:47;;;;;;;12.65;7.10;;;12.00;87.20;;;;;;5053048;28;20036;-66
2023/03/30 11:56:37;;;;;;;9.15;6.75;;;12.10;87.90;;;;;;5053816;28;20036;-67
2023/03/30 11:59:05;;;;;;;12.95;7.05;;;12.10;88.50;;;;;;5052986;28;20068;-68
2023/03/30 12:01:31;;;;;;;9.75;6.72;;;12.20;88.60;;;;;;5053269;28;20047;-73
2023/03/30 12:04:13;;;;;;;11.63;7.13;;;12.20;88.90;;;;;;5053351;28;20508;-66
2023/03/30 12:07:24;;;;;;;10.10;6.43;;;12.20;88.50;;;;;;5052886;28;20468;-67
2023/03/30 12:10:01;;;;;;;12.13;7.70;;;12.30;88.50;;;;;;5042599;28;20033;-68
2023/03/30 12:12:33;;;;;;;11.32;7.18;;;12.40;88.20;;;;;;5053380;28;20037;-67
2023/03/30 12:15:04;;;;;;;9.73;6.57;;;12.50;88.20;;;;;;5053278;28;20021;-68
2023/03/30 12:17:36;;;;;;;9.43;6.63;;;12.50;88.10;;;;;;5052914;28;20032;-68
2023/03/30 12:20:36;;;;;;;9.00;6.93;;;12.60;87.90;;;;;;5053221;28;20033;-67
2023/03/30 12:23:20;;;;;;;11.15;6.45;;;12.70;87.50;;;;;;4999606;28;20153;-67
2023/03/30 12:26:09;;;;;;;9.68;6.18;;;12.70;86.60;;;;;;5052680;28;20036;-67
2023/03/30 12:28:57;;;;;;;8.48;6.18;;;12.80;86.90;;;;;;5053026;28;20558;-67
2023/03/30 12:31:43;;;;;;;9.95;6.03;;;12.80;86.40;;;;;;5053049;28;20079;-67
2023/03/30 12:34:09;;;;;;;8.40;6.30;;;12.90;86.60;;;;;;5052669;28;20121;-67
2023/03/30 12:36:41;;;;;;;10.88;6.65;;;12.90;87.00;;;;;;5052206;28;20033;-67
2023/03/30 12:39:16;;;;;;;9.38;5.88;;;12.90;86.10;;;;;;5052892;28;20029;-68
2023/03/30 12:41:49;;;;;;;10.07;6.70;;;12.90;86.40;;;;;;5052521;28;20029;-68
2023/03/30 12:44:31;;;;;;;12.25;6.20;;;13.00;86.50;;;;;;5052890;28;20053;-68
2023/03/30 12:47:11;;;;;;;12.15;6.68;;;13.00;86.10;;;;;;5051685;28;20035;-68
2023/03/30 12:49:59;;;;;;;9.57;6.32;;;13.00;86.60;;;;;;5052334;28;20025;-68
2023/03/30 12:52:54;;;;;;;10.23;7.20;;;13.00;87.40;;;;;;5046516;28;20163;-66
2023/03/30 12:55:26;;;;;;;9.45;6.55;;;13.00;88.10;;;;;;5043123;28;20106;-67
2023/03/30 12:58:43;;;;;;;10.77;7.25;;;12.90;88.60;;;;;;5051893;28;20430;-67
2023/03/30 13:01:11;;;;;;;11.73;6.78;;;12.90;90.00;;;;;;5010748;28;20030;-68
2023/03/30 13:03:51;;;;;;;10.40;7.40;;;12.80;90.90;;;;;;5048563;28;20485;-67
2023/03/30 13:07:01;;;;;;;10.80;7.03;;;12.80;92.00;;;;;;5052293;28;20074;-67
2023/03/30 13:09:26;;;;;;;11.05;8.07;;;12.70;92.80;;;;;;5010467;28;20587;-66
2023/03/30 13:11:52;;;;;;;12.85;7.68;;;12.70;93.50;;;;;;5045897;28;20128;-67